Terminal Aerodrome Forecast
Issued by NWS

Home | Current Version | Previous Version | Text Only | Print | Product List | Glossary On
Versions: 1 2 3 4 5 6 7 8 9 10 11 12 13 14 15 16 17 18 19 20 21 22 23 24 25 26 27 28 29 30 31 32
000
FTUS44 KOUN 070539
TAFLAW
TAF
KLAW 070539Z 0706/0806 16020G30KT P6SM -RA FEW025 OVC100
      TEMPO 0706/0708 3SM -TSRA SCT025 OVC050CB
     FM070800 17013KT P6SM SCT015
     FM071200 18013KT P6SM BKN015
     FM071500 17014G20KT P6SM BKN015
     FM071800 17015G22KT P6SM SCT035
     FM080100 16009KT P6SM FEW050 BKN250=

USA.gov is the U.S. government's official web portal to all federal, state and local government web resources and services.